CheckWX is a tool to help pilots better visualize weather data.  It is not intended as a substitute for an official pre-flight weather briefing.

03:17:28 UTC

KCAD METAR
Wexford County Airport
Cadillac, Michigan, USA
Current

21 mins ago

KCAD 270256Z AUTO 00000KT 10SM CLR 12/08 A3008 RMK AO2 T01250081
Observed
May-27 @ 02:56 UTC
Visibility
10 SM
Flight Rules
VFR
Cloud Levels
  • Clear skies
Temperature
13°C / 55°F
Dewpoint
C / 46°F
Humidity
72%
Altimeter
30.08" Hg
Pressure
1018.62 hPa
Previous

42 mins ago

KCAD 270235Z AUTO 00000KT 10SM CLR 12/07 A3008 RMK AO2 T01300078
Observed
May-27 @ 02:35 UTC
Visibility
10 SM
Flight Rules
VFR
Cloud Levels
  • Clear skies
Temperature
13°C / 55°F
Dewpoint
C / 46°F
Humidity
72%
Altimeter
30.08" Hg
Pressure
1018.62 hPa
Previous

1 hour ago

KCAD 270215Z AUTO 00000KT 10SM CLR 13/08 A3006 RMK AO2 T01340082
Observed
May-27 @ 02:15 UTC
Visibility
10 SM
Flight Rules
VFR
Cloud Levels
  • Clear skies
Temperature
13°C / 55°F
Dewpoint
C / 46°F
Humidity
72%
Altimeter
30.06" Hg
Pressure
1017.92 hPa